createdAt,value
2023-02-06T00:01:34.595Z,100807.75
2023-02-06T00:04:18.960Z,100815.47
2023-02-06T00:07:02.947Z,100803.66
2023-02-06T00:09:48.169Z,100813.84
2023-02-06T00:12:32.278Z,100810.34
2023-02-06T00:15:16.110Z,100803.47
2023-02-06T00:17:59.934Z,100812.31
2023-02-06T00:20:43.772Z,100800.09
2023-02-06T00:23:27.593Z,100815.47
2023-02-06T00:26:12.878Z,100817.09
2023-02-06T00:28:56.920Z,100609.69
2023-02-06T00:31:41.686Z,100815.78
2023-02-06T00:34:25.757Z,100780.69
2023-02-06T00:37:09.634Z,100810.59
2023-02-06T00:39:53.905Z,100830.94
2023-02-06T00:42:39.376Z,100811.09
2023-02-06T00:45:23.399Z,100805.25
2023-02-06T00:48:09.200Z,100821.56
2023-02-06T00:50:54.914Z,100815.28
2023-02-06T00:53:38.913Z,100794.91
2023-02-06T00:56:22.868Z,100817.22
2023-02-06T00:59:08.118Z,100781.81
2023-02-06T01:01:51.933Z,100839.88
2023-02-06T01:04:35.837Z,100807.16
2023-02-06T01:07:19.726Z,100788.03
2023-02-06T01:10:03.559Z,100795.09
2023-02-06T01:12:47.588Z,100824.00
2023-02-06T01:15:33.147Z,100793.38
2023-02-06T01:18:17.189Z,100802.06
2023-02-06T01:21:01.035Z,100823.78
2023-02-06T01:23:46.843Z,100767.47
2023-02-06T01:26:30.697Z,100790.09
2023-02-06T01:29:14.444Z,100829.66
2023-02-06T01:31:59.865Z,100791.00
2023-02-06T01:34:43.770Z,100790.19
2023-02-06T01:37:27.688Z,100795.28
2023-02-06T01:40:16.235Z,100770.16
2023-02-06T01:43:01.521Z,100747.94
2023-02-06T01:45:47.152Z,100788.53
2023-02-06T01:48:36.497Z,100788.53
2023-02-06T01:51:24.728Z,100789.53
2023-02-06T01:54:10.163Z,100776.38
2023-02-06T01:56:59.772Z,100816.16
2023-02-06T01:59:50.550Z,100789.56
2023-02-06T02:02:35.924Z,100800.56
2023-02-06T02:05:21.656Z,100742.56
2023-02-06T02:08:11.567Z,100803.31
2023-02-06T02:10:55.559Z,100786.97
2023-02-06T02:13:40.406Z,100791.03
2023-02-06T02:16:30.837Z,100705.63
2023-02-06T02:19:33.551Z,100776.47
2023-02-06T02:22:55.584Z,100766.97
2023-02-06T02:26:12.658Z,100780.03
2023-02-06T02:29:15.670Z,100766.09
2023-02-06T02:32:23.747Z,100787.50
2023-02-06T02:35:16.180Z,100763.38
2023-02-06T02:38:15.800Z,100773.75
2023-02-06T02:41:09.968Z,100802.34
2023-02-06T02:44:00.664Z,100794.56
2023-02-06T02:46:49.244Z,100743.28
2023-02-06T02:49:35.168Z,100801.50
2023-02-06T02:52:21.038Z,100765.69
2023-02-06T02:55:16.243Z,100831.41
2023-02-06T02:58:06.871Z,100831.53
2023-02-06T03:00:55.581Z,100837.50
2023-02-06T03:03:44.641Z,100818.59
2023-02-06T03:06:47.943Z,100796.06
2023-02-06T03:09:47.098Z,100812.50
2023-02-06T03:12:41.185Z,100829.66
2023-02-06T03:15:31.013Z,100816.66
2023-02-06T03:18:21.159Z,100833.13
2023-02-06T03:21:08.174Z,100827.28
2023-02-06T03:23:56.078Z,100823.09
2023-02-06T03:26:43.139Z,100817.94
2023-02-06T03:29:29.485Z,100821.28
2023-02-06T03:32:18.697Z,100838.59
2023-02-06T03:35:06.563Z,100858.34
2023-02-06T03:37:51.416Z,100823.03
2023-02-06T03:40:36.404Z,100811.03
2023-02-06T03:43:26.252Z,100807.66
2023-02-06T03:46:13.496Z,100831.81
2023-02-06T03:49:01.229Z,100833.44
2023-02-06T03:51:50.476Z,100805.81
2023-02-06T03:54:36.881Z,100837.00
2023-02-06T03:57:23.076Z,100805.63
2023-02-06T04:00:09.754Z,100798.78
2023-02-06T04:02:58.067Z,100803.47
2023-02-06T04:05:42.107Z,100844.50
2023-02-06T04:08:26.004Z,100848.03
2023-02-06T04:11:09.685Z,100857.38
2023-02-06T04:13:53.419Z,100872.91
2023-02-06T04:16:38.774Z,100837.50
2023-02-06T04:19:22.730Z,100865.13
2023-02-06T04:22:07.200Z,100871.84
2023-02-06T04:24:51.057Z,100860.63
2023-02-06T04:27:34.939Z,100812.31
2023-02-06T04:30:19.044Z,100858.09
2023-02-06T04:33:04.350Z,100869.19
2023-02-06T04:35:49.002Z,100843.56
2023-02-06T04:38:32.832Z,100856.56
2023-02-06T04:41:16.702Z,100872.03
2023-02-06T04:44:00.504Z,100838.03
2023-02-06T04:46:44.444Z,100863.25
2023-02-06T04:49:29.846Z,100884.56
2023-02-06T04:52:13.722Z,100869.81
2023-02-06T04:54:57.593Z,100890.78
2023-02-06T04:57:41.422Z,100875.22
2023-02-06T05:00:25.469Z,100875.25
2023-02-06T05:03:09.424Z,100924.13
2023-02-06T05:05:54.703Z,100920.66
2023-02-06T05:08:38.570Z,100908.75
2023-02-06T05:11:22.427Z,100935.16
2023-02-06T05:14:06.151Z,100912.19
2023-02-06T05:16:50.148Z,100914.78
2023-02-06T05:19:34.019Z,100900.94
2023-02-06T05:22:19.163Z,100925.88
2023-02-06T05:25:02.979Z,100918.13
2023-02-06T05:27:47.493Z,100913.78
2023-02-06T05:30:31.392Z,100890.63
2023-02-06T05:33:15.358Z,100911.50
2023-02-06T05:36:03.158Z,100911.31
2023-02-06T05:38:48.519Z,100894.97
2023-02-06T05:41:32.523Z,100911.19
2023-02-06T05:44:16.367Z,100890.50
2023-02-06T05:47:00.551Z,100907.19
2023-02-06T05:49:45.010Z,100905.69
2023-02-06T05:52:28.755Z,100909.22
2023-02-06T05:55:13.980Z,100936.41
2023-02-06T05:57:57.810Z,100921.47
2023-02-06T06:00:41.784Z,100911.94
2023-02-06T06:03:25.705Z,100912.81
2023-02-06T06:06:09.768Z,100915.34
2023-02-06T06:08:53.575Z,100910.97
2023-02-06T06:11:38.819Z,100890.19
2023-02-06T06:14:22.938Z,100894.53
2023-02-06T06:17:06.736Z,100924.13
2023-02-06T06:19:50.580Z,100878.03
2023-02-06T06:22:34.574Z,100915.78
2023-02-06T06:25:18.672Z,100915.03
2023-02-06T06:28:03.837Z,100938.44
2023-02-06T06:30:47.793Z,100925.63
2023-02-06T06:33:31.576Z,100939.38
2023-02-06T06:36:15.830Z,100947.78
2023-02-06T06:38:59.645Z,100954.91
2023-02-06T06:41:43.655Z,100951.53
2023-02-06T06:45:10.032Z,100941.78
2023-02-06T06:47:55.259Z,100948.72
2023-02-06T06:50:39.092Z,100929.16
2023-02-06T06:53:23.270Z,100946.47
2023-02-06T06:56:08.979Z,100939.53
2023-02-06T06:58:52.808Z,100940.44
2023-02-06T07:01:36.706Z,100922.31
2023-02-06T07:04:23.155Z,100902.44
2023-02-06T07:07:07.499Z,100904.91
2023-02-06T07:09:51.398Z,100924.22
2023-02-06T07:12:35.366Z,100919.19
2023-02-06T07:15:19.312Z,100924.22
2023-02-06T07:18:03.057Z,100943.81
2023-02-06T07:20:48.421Z,100920.03
2023-02-06T07:23:32.311Z,100919.06
2023-02-06T07:26:16.091Z,100964.03
2023-02-06T07:28:59.816Z,100938.00
2023-02-06T07:31:43.739Z,100907.25
2023-02-06T07:34:27.806Z,100888.69
2023-02-06T07:37:12.982Z,100972.47
2023-02-06T07:39:56.849Z,100939.88
2023-02-06T07:42:41.028Z,100962.66
2023-02-06T07:45:32.811Z,100932.00
2023-02-06T07:48:17.123Z,100970.78
2023-02-06T07:51:06.141Z,100952.53
2023-02-06T07:53:51.358Z,100971.13
2023-02-06T07:56:35.494Z,100975.16
2023-02-06T07:59:19.368Z,100959.56
2023-02-06T08:02:03.262Z,100985.44
2023-02-06T08:04:47.132Z,101007.75
2023-02-06T08:07:30.956Z,101014.81
2023-02-06T08:10:16.706Z,100945.38
2023-02-06T08:13:00.575Z,101006.72
2023-02-06T08:15:45.095Z,101029.16
2023-02-06T08:18:28.896Z,101021.53
2023-02-06T08:21:14.244Z,101013.03
2023-02-06T08:23:59.430Z,101025.81
2023-02-06T08:26:44.952Z,101049.69
2023-02-06T08:29:28.896Z,101062.34
2023-02-06T08:32:12.815Z,101078.28
2023-02-06T08:34:56.633Z,101048.19
2023-02-06T08:37:40.854Z,101074.13
2023-02-06T08:40:24.757Z,101113.06
2023-02-06T08:43:09.936Z,101089.00
2023-02-06T08:45:56.247Z,101082.75
2023-02-06T08:48:40.212Z,101072.25
2023-02-06T08:51:27.864Z,101066.53
2023-02-06T08:54:14.588Z,101074.56
2023-02-06T08:57:01.092Z,101045.09
2023-02-06T08:59:46.407Z,101090.19
2023-02-06T09:02:30.301Z,101089.88
2023-02-06T09:05:14.577Z,101079.53
2023-02-06T09:07:58.430Z,101087.41
2023-02-06T09:15:54.954Z,101110.66
2023-02-06T09:18:39.170Z,101112.41
2023-02-06T09:21:26.306Z,101036.34
2023-02-06T09:24:10.701Z,101123.88
2023-02-06T09:26:59.824Z,101098.53
2023-02-06T09:29:44.238Z,101103.25
2023-02-06T09:32:29.560Z,101064.72
2023-02-06T09:35:13.578Z,101084.69
2023-02-06T09:37:57.606Z,101030.03
2023-02-06T09:40:41.845Z,101120.13
2023-02-06T09:43:26.164Z,101090.81
2023-02-06T09:46:16.112Z,101053.31
2023-02-06T09:49:04.588Z,101066.47
2023-02-06T09:52:24.534Z,101096.34
2023-02-06T09:55:17.216Z,101074.47
2023-02-06T09:58:12.741Z,101119.72
2023-02-06T10:01:02.552Z,101071.88
2023-02-06T10:04:12.717Z,101077.28
2023-02-06T10:07:08.205Z,101123.19
2023-02-06T10:09:57.500Z,101058.94
2023-02-06T10:12:45.554Z,101106.81
2023-02-06T10:15:35.317Z,101063.94
2023-02-06T10:18:25.401Z,101130.03
2023-02-06T10:21:16.485Z,101117.78
2023-02-06T10:24:09.727Z,101122.06
2023-02-06T10:26:54.628Z,101120.13
2023-02-06T10:29:38.850Z,101130.56
2023-02-06T10:32:38.841Z,101094.13
2023-02-06T10:35:49.857Z,101114.94
2023-02-06T10:39:14.112Z,101124.66
2023-02-06T10:42:06.604Z,101115.22
2023-02-06T10:45:09.522Z,101133.44
2023-02-06T10:48:10.038Z,101150.56
2023-02-06T10:50:57.749Z,101146.06
2023-02-06T10:53:49.979Z,101150.59
2023-02-06T10:56:41.003Z,101151.97
2023-02-06T10:59:30.134Z,101155.78
2023-02-06T11:02:21.599Z,101166.06
2023-02-06T11:05:09.165Z,101146.41
2023-02-06T11:07:55.097Z,101148.81
2023-02-06T11:10:39.342Z,101148.09
2023-02-06T11:13:28.584Z,101146.06
2023-02-06T11:16:16.567Z,101126.13
2023-02-06T11:19:10.973Z,101144.44
2023-02-06T11:21:57.208Z,101147.78
2023-02-06T11:25:00.120Z,101135.84
2023-02-06T11:27:44.461Z,101126.28
2023-02-06T11:30:36.017Z,101105.34
2023-02-06T11:33:23.292Z,101107.13
2023-02-06T11:36:09.170Z,101108.13
2023-02-06T11:38:58.842Z,101111.59
2023-02-06T11:41:56.854Z,101111.06
2023-02-06T11:44:43.626Z,101110.06
2023-02-06T11:47:32.538Z,101153.25
2023-02-06T11:50:28.705Z,101132.34
2023-02-06T11:53:16.864Z,101111.09
2023-02-06T11:56:04.336Z,101130.03
2023-02-06T11:59:01.883Z,101150.22
2023-02-06T12:01:47.912Z,101126.53
2023-02-06T12:04:37.672Z,101130.91
2023-02-06T12:07:30.136Z,101139.75
2023-02-06T12:10:16.125Z,101117.53
2023-02-06T12:13:08.187Z,101123.25
2023-02-06T12:15:55.330Z,101082.22
2023-02-06T12:18:41.366Z,101131.81
2023-02-06T12:21:31.415Z,101082.66
2023-02-06T12:24:26.623Z,101115.34
2023-02-06T12:27:16.430Z,101084.19
2023-02-06T12:30:07.482Z,101130.56
2023-02-06T12:33:00.026Z,101126.88
2023-02-06T12:35:48.239Z,101135.88
2023-02-06T12:38:43.140Z,101139.97
2023-02-06T12:41:42.539Z,101078.09
2023-02-06T12:44:33.701Z,101115.44
2023-02-06T12:47:25.104Z,101076.66
2023-02-06T12:50:17.793Z,101097.84
2023-02-06T12:53:06.166Z,101103.16
2023-02-06T12:55:59.609Z,101074.47
2023-02-06T12:58:57.545Z,101061.38
2023-02-06T13:01:54.871Z,101155.28
2023-02-06T13:04:39.287Z,101158.56
2023-02-06T13:07:28.329Z,101159.00
2023-02-06T13:10:20.458Z,101132.97
2023-02-06T13:13:06.422Z,101115.63
2023-02-06T13:15:55.309Z,101159.03
2023-02-06T13:19:03.782Z,101174.22
2023-02-06T13:21:52.976Z,101129.13
2023-02-06T13:24:38.080Z,101130.06
2023-02-06T13:27:25.289Z,101193.41
2023-02-06T13:30:50.155Z,101184.03
2023-02-06T13:33:42.677Z,101179.06
2023-02-06T13:36:42.367Z,101203.38
2023-02-06T13:39:32.663Z,101192.44
2023-02-06T13:42:44.217Z,101215.94
2023-02-06T13:45:41.673Z,101198.69
2023-02-06T13:48:55.367Z,101212.19
2023-02-06T13:51:54.178Z,101220.94
2023-02-06T13:55:00.884Z,101225.44
2023-02-06T13:58:14.145Z,101223.59
2023-02-06T14:01:01.475Z,101225.28
2023-02-06T14:03:47.308Z,101231.47
2023-02-06T14:06:44.524Z,101214.50
2023-02-06T14:09:48.821Z,101238.81
2023-02-06T14:12:57.435Z,101251.09
2023-02-06T14:15:52.058Z,101226.22
2023-02-06T14:18:46.972Z,101262.78
2023-02-06T14:21:38.787Z,101235.16
2023-02-06T14:25:04.197Z,101250.41
2023-02-06T14:28:01.366Z,101256.81
2023-02-06T14:30:52.166Z,101260.69
2023-02-06T14:33:56.343Z,101255.72
2023-02-06T14:37:05.368Z,101269.25
2023-02-06T14:39:51.603Z,101277.16
2023-02-06T14:42:40.484Z,101280.19
2023-02-06T14:45:41.044Z,101283.56
2023-02-06T14:48:32.958Z,101300.50
2023-02-06T14:51:24.937Z,101298.13
2023-02-06T14:54:30.013Z,101306.53
2023-02-06T14:57:21.183Z,101309.34
2023-02-06T15:00:18.483Z,101284.06
2023-02-06T15:03:08.585Z,101311.56
2023-02-06T15:06:02.315Z,101309.00
2023-02-06T15:08:51.084Z,101331.63
2023-02-06T15:11:35.711Z,101294.19
2023-02-06T15:14:23.290Z,101322.25
2023-02-06T15:17:07.149Z,101342.28
2023-02-06T15:19:51.156Z,101329.59
2023-02-06T15:22:36.984Z,101323.16
2023-02-06T15:25:34.972Z,101332.00
2023-02-06T15:28:21.701Z,101326.34
2023-02-06T15:31:06.359Z,101331.81
2023-02-06T15:33:52.432Z,101339.09
2023-02-06T15:36:37.969Z,101354.44
2023-02-06T15:39:21.984Z,101340.78
2023-02-06T15:42:07.294Z,101332.41
2023-02-06T15:44:51.566Z,101353.50
2023-02-06T15:47:35.790Z,101360.69
2023-02-06T15:50:21.330Z,101343.06
2023-02-06T15:53:18.827Z,101368.91
2023-02-06T15:56:05.251Z,101379.00
2023-02-06T15:58:58.948Z,101347.94
2023-02-06T16:01:44.874Z,101350.25
2023-02-06T16:04:32.323Z,101371.09
2023-02-06T16:07:19.784Z,101354.38
2023-02-06T16:10:13.443Z,101385.09
2023-02-06T16:13:00.225Z,101376.25
2023-02-06T16:16:03.318Z,101386.53
2023-02-06T16:18:47.384Z,101378.53
2023-02-06T16:21:35.591Z,101400.88
2023-02-06T16:24:22.316Z,101393.03
2023-02-06T16:27:17.539Z,101379.25
2023-02-06T16:30:01.659Z,101397.63
2023-02-06T16:32:49.223Z,101400.22
2023-02-06T16:35:33.109Z,101383.81
2023-02-06T16:38:17.060Z,101416.00
2023-02-06T16:41:01.152Z,101373.94
2023-02-06T16:43:45.246Z,101367.78
2023-02-06T16:46:29.483Z,101414.75
2023-02-06T16:49:17.318Z,101417.56
2023-02-06T16:52:01.607Z,101428.22
2023-02-06T16:54:46.898Z,101431.94
2023-02-06T16:57:35.108Z,101434.63
2023-02-06T17:00:21.256Z,101428.81
2023-02-06T17:03:06.067Z,101423.13
2023-02-06T17:05:53.085Z,101418.09
2023-02-06T17:08:40.303Z,101433.88
2023-02-06T17:11:24.132Z,101412.78
2023-02-06T17:14:08.089Z,101437.53
2023-02-06T17:16:52.195Z,101413.09
2023-02-06T17:19:36.089Z,101419.69
2023-02-06T17:22:21.600Z,101406.25
2023-02-06T17:25:06.141Z,101441.72
2023-02-06T17:27:50.210Z,101394.09
2023-02-06T17:30:36.078Z,101423.59
2023-02-06T17:33:20.804Z,101407.22
2023-02-06T17:36:07.866Z,101440.81
2023-02-06T17:38:53.301Z,101432.56
2023-02-06T17:41:37.332Z,101447.91
2023-02-06T17:44:21.401Z,101441.63
2023-02-06T17:47:05.717Z,101397.09
2023-02-06T17:49:49.772Z,101410.47
2023-02-06T17:52:33.704Z,101450.25
2023-02-06T17:55:19.082Z,101292.31
2023-02-06T17:58:02.967Z,101436.69
2023-02-06T18:00:49.348Z,101443.50
2023-02-06T18:03:33.233Z,101453.47
2023-02-06T18:06:17.108Z,101432.81
2023-02-06T18:09:01.016Z,101407.41
2023-02-06T18:11:46.472Z,101450.31
2023-02-06T18:14:30.216Z,101442.63
2023-02-06T18:17:14.059Z,101442.09
2023-02-06T18:19:58.290Z,101422.13
2023-02-06T18:22:42.194Z,101424.34
2023-02-06T18:25:25.936Z,101429.06
2023-02-06T18:28:13.946Z,101431.00
2023-02-06T18:30:58.121Z,101439.63
2023-02-06T18:33:41.879Z,101451.69
2023-02-06T18:36:26.216Z,101444.47
2023-02-06T18:39:11.745Z,101460.75
2023-02-06T18:42:13.187Z,101437.25
2023-02-06T18:44:58.337Z,101464.34
2023-02-06T18:47:42.469Z,101471.25
2023-02-06T18:50:26.481Z,101454.44
2023-02-06T18:53:10.888Z,101455.47
2023-02-06T18:55:58.986Z,101465.97
2023-02-06T18:58:43.016Z,101460.88
2023-02-06T19:01:28.379Z,101460.44
2023-02-06T19:04:12.135Z,101421.94
2023-02-06T19:06:56.080Z,101444.50
2023-02-06T19:09:40.023Z,101465.75
2023-02-06T19:12:23.901Z,101502.84
2023-02-06T19:15:08.943Z,101475.34
2023-02-06T19:17:54.248Z,101460.78
2023-02-06T19:20:38.462Z,101460.66
2023-02-06T19:23:22.792Z,101459.63
2023-02-06T19:26:07.992Z,101465.41
2023-02-06T19:28:52.489Z,101452.88
2023-02-06T19:31:39.250Z,101477.88
2023-02-06T19:34:24.778Z,101420.56
2023-02-06T19:37:11.356Z,101450.19
2023-02-06T19:39:55.282Z,101465.41
2023-02-06T19:42:40.766Z,101459.06
2023-02-06T19:45:24.748Z,101423.00
2023-02-06T19:48:12.298Z,101431.31
2023-02-06T19:50:57.721Z,101428.19
2023-02-06T19:53:45.857Z,101442.25
2023-02-06T19:56:34.641Z,101463.22
2023-02-06T19:59:21.701Z,101452.88
2023-02-06T20:02:05.733Z,101472.59
2023-02-06T20:04:49.581Z,101438.16
2023-02-06T20:07:34.901Z,101414.34
2023-02-06T20:10:18.689Z,101472.03
2023-02-06T20:13:02.482Z,101454.38
2023-02-06T20:15:46.395Z,101476.88
2023-02-06T20:18:30.282Z,101457.59
2023-02-06T20:21:21.998Z,101472.56
2023-02-06T20:24:10.124Z,101449.28
2023-02-06T20:26:56.420Z,101416.91
2023-02-06T20:29:42.557Z,101469.03
2023-02-06T20:32:26.324Z,101464.97
2023-02-06T20:35:10.201Z,101480.06
2023-02-06T20:37:54.058Z,101455.78
2023-02-06T20:40:43.778Z,101493.91
2023-02-06T20:43:27.591Z,101472.47
2023-02-06T20:46:11.521Z,101456.66
2023-02-06T20:48:57.378Z,101470.72
2023-02-06T20:51:41.262Z,101475.63
2023-02-06T20:54:26.116Z,101445.00
2023-02-06T20:57:11.312Z,101451.56
2023-02-06T20:59:55.197Z,101450.22
2023-02-06T21:02:38.974Z,101465.63
2023-02-06T21:05:22.770Z,101451.78
2023-02-06T21:08:06.572Z,101440.41
2023-02-06T21:10:51.159Z,101443.50
2023-02-06T21:13:36.669Z,101451.44
2023-02-06T21:16:20.416Z,101455.63
2023-02-06T21:19:07.029Z,101423.13
2023-02-06T21:21:51.147Z,101417.84
2023-02-06T21:24:34.916Z,101452.75
2023-02-06T21:27:18.780Z,101427.38
2023-02-06T21:30:05.050Z,101462.88
2023-02-06T21:32:48.912Z,101434.63
2023-02-06T21:35:33.904Z,101445.63
2023-02-06T21:38:18.125Z,101446.66
2023-02-06T21:41:05.171Z,101451.66
2023-02-06T21:43:49.189Z,101455.28
2023-02-06T21:46:34.588Z,101445.03
2023-02-06T21:49:18.766Z,101456.59
2023-02-06T21:52:02.557Z,101458.47
2023-02-06T21:54:46.423Z,101466.09
2023-02-06T21:57:30.280Z,101466.00
2023-02-06T22:00:15.169Z,101433.75
2023-02-06T22:03:00.349Z,101462.31
2023-02-06T22:05:44.293Z,101469.53
2023-02-06T22:08:28.114Z,101480.47
2023-02-06T22:11:14.268Z,101418.97
2023-02-06T22:13:59.783Z,101475.16
2023-02-06T22:16:46.642Z,101481.59
2023-02-06T22:19:32.024Z,101485.94
2023-02-06T22:22:16.072Z,101476.28
2023-02-06T22:25:00.108Z,101471.69
2023-02-06T22:27:44.129Z,101491.59
2023-02-06T22:30:27.943Z,101483.66
2023-02-06T22:33:11.773Z,101493.31
2023-02-06T22:35:56.999Z,101472.91
2023-02-06T22:38:41.852Z,101493.09
2023-02-06T22:41:25.768Z,101493.84
2023-02-06T22:44:09.656Z,101491.97
2023-02-06T22:46:54.326Z,101502.66
2023-02-06T22:49:38.242Z,101489.75
2023-02-06T22:52:40.683Z,101496.50
2023-02-06T22:55:24.814Z,101468.38
2023-02-06T22:58:08.634Z,101494.03
2023-02-06T23:00:52.489Z,101538.16
2023-02-06T23:03:36.461Z,101518.81
2023-02-06T23:06:20.536Z,101441.97
2023-02-06T23:09:07.523Z,101475.13
2023-02-06T23:11:51.845Z,101488.06
2023-02-06T23:14:35.661Z,101502.94
2023-02-06T23:17:19.444Z,101498.56
2023-02-06T23:20:03.185Z,101481.69
2023-02-06T23:22:47.069Z,101497.25
2023-02-06T23:25:32.821Z,101513.75
2023-02-06T23:28:16.876Z,101468.50
2023-02-06T23:31:00.836Z,101505.84
2023-02-06T23:33:44.681Z,101503.91
2023-02-06T23:36:29.688Z,101496.50
2023-02-06T23:39:13.523Z,101512.31
2023-02-06T23:41:58.721Z,101510.66
2023-02-06T23:44:42.653Z,101515.47
2023-02-06T23:47:26.489Z,101544.03
2023-02-06T23:50:11.074Z,101522.19
2023-02-06T23:52:55.113Z,101548.63
2023-02-06T23:55:40.524Z,101555.44
2023-02-06T23:58:26.152Z,101536.72
